sensor_id;sensor_type;location;lat;lon;timestamp;temperature;humidity
1107;DHT22;540;49.448;8.612;2022-10-16T00:01:32;17.10;99.90
1107;DHT22;540;49.448;8.612;2022-10-16T00:04:02;17.40;99.90
1107;DHT22;540;49.448;8.612;2022-10-16T00:06:30;17.40;99.90
1107;DHT22;540;49.448;8.612;2022-10-16T00:08:59;17.10;99.90
1107;DHT22;540;49.448;8.612;2022-10-16T00:11:28;17.40;99.90
1107;DHT22;540;49.448;8.612;2022-10-16T00:14:00;17.30;99.90
1107;DHT22;540;49.448;8.612;2022-10-16T00:16:28;17.20;99.90
1107;DHT22;540;49.448;8.612;2022-10-16T00:18:56;17.30;99.90
1107;DHT22;540;49.448;8.612;2022-10-16T00:21:27;17.00;99.90
1107;DHT22;540;49.448;8.612;2022-10-16T00:23:57;17.00;99.90
1107;DHT22;540;49.448;8.612;2022-10-16T00:26:27;17.30;99.90
1107;DHT22;540;49.448;8.612;2022-10-16T00:28:55;17.20;99.90
1107;DHT22;540;49.448;8.612;2022-10-16T00:31:24;17.20;99.90
1107;DHT22;540;49.448;8.612;2022-10-16T00:33:52;17.30;99.90
1107;DHT22;540;49.448;8.612;2022-10-16T00:36:23;16.90;99.90
1107;DHT22;540;49.448;8.612;2022-10-16T00:38:52;17.30;99.90
1107;DHT22;540;49.448;8.612;2022-10-16T00:41:23;17.00;99.90
1107;DHT22;540;49.448;8.612;2022-10-16T00:43:53;17.20;99.90
1107;DHT22;540;49.448;8.612;2022-10-16T00:46:22;17.20;99.90
1107;DHT22;540;49.448;8.612;2022-10-16T00:48:52;17.20;99.90
1107;DHT22;540;49.448;8.612;2022-10-16T00:51:25;17.40;99.90
1107;DHT22;540;49.448;8.612;2022-10-16T00:53:55;17.30;99.90
1107;DHT22;540;49.448;8.612;2022-10-16T00:56:23;17.00;99.90
1107;DHT22;540;49.448;8.612;2022-10-16T00:58:51;17.20;99.90
1107;DHT22;540;49.448;8.612;2022-10-16T01:01:19;17.10;99.90
1107;DHT22;540;49.448;8.612;2022-10-16T01:03:47;17.40;99.90
1107;DHT22;540;49.448;8.612;2022-10-16T01:06:21;16.70;99.90
1107;DHT22;540;49.448;8.612;2022-10-16T01:09:06;17.10;99.90
1107;DHT22;540;49.448;8.612;2022-10-16T01:11:44;17.10;99.90
1107;DHT22;540;49.448;8.612;2022-10-16T01:14:17;17.10;99.90
1107;DHT22;540;49.448;8.612;2022-10-16T01:16:51;17.20;99.90
1107;DHT22;540;49.448;8.612;2022-10-16T01:19:32;17.30;99.90
1107;DHT22;540;49.448;8.612;2022-10-16T01:22:04;17.00;99.90
1107;DHT22;540;49.448;8.612;2022-10-16T01:24:39;17.00;99.90
1107;DHT22;540;49.448;8.612;2022-10-16T01:27:12;16.70;99.90
1107;DHT22;540;49.448;8.612;2022-10-16T01:29:48;17.20;99.90
1107;DHT22;540;49.448;8.612;2022-10-16T01:32:30;17.00;99.90
1107;DHT22;540;49.448;8.612;2022-10-16T01:35:03;17.10;99.90
1107;DHT22;540;49.448;8.612;2022-10-16T01:37:36;16.90;99.90
1107;DHT22;540;49.448;8.612;2022-10-16T01:40:09;16.90;99.90
1107;DHT22;540;49.448;8.612;2022-10-16T01:42:41;17.20;99.90
1107;DHT22;540;49.448;8.612;2022-10-16T01:45:13;17.20;99.90
1107;DHT22;540;49.448;8.612;2022-10-16T01:47:42;17.20;99.90
1107;DHT22;540;49.448;8.612;2022-10-16T01:50:10;17.30;99.90
1107;DHT22;540;49.448;8.612;2022-10-16T01:52:42;17.20;99.90
1107;DHT22;540;49.448;8.612;2022-10-16T01:55:13;17.20;99.90
1107;DHT22;540;49.448;8.612;2022-10-16T01:57:45;17.20;99.90
1107;DHT22;540;49.448;8.612;2022-10-16T02:00:17;17.40;99.90
1107;DHT22;540;49.448;8.612;2022-10-16T02:02:49;17.10;99.90
1107;DHT22;540;49.448;8.612;2022-10-16T02:05:23;17.30;99.90
1107;DHT22;540;49.448;8.612;2022-10-16T02:07:52;17.50;99.90
1107;DHT22;540;49.448;8.612;2022-10-16T02:10:21;17.30;99.90
1107;DHT22;540;49.448;8.612;2022-10-16T02:12:56;17.40;99.90
1107;DHT22;540;49.448;8.612;2022-10-16T02:15:25;17.30;99.90
1107;DHT22;540;49.448;8.612;2022-10-16T02:17:52;17.40;99.90
1107;DHT22;540;49.448;8.612;2022-10-16T02:20:24;17.50;99.90
1107;DHT22;540;49.448;8.612;2022-10-16T02:22:54;17.40;99.90
1107;DHT22;540;49.448;8.612;2022-10-16T02:25:26;17.50;99.90
1107;DHT22;540;49.448;8.612;2022-10-16T02:28:01;17.40;99.90
1107;DHT22;540;49.448;8.612;2022-10-16T02:30:34;17.20;99.90
1107;DHT22;540;49.448;8.612;2022-10-16T02:33:07;17.40;99.90
1107;DHT22;540;49.448;8.612;2022-10-16T02:35:36;17.10;99.90
1107;DHT22;540;49.448;8.612;2022-10-16T02:38:05;17.40;99.90
1107;DHT22;540;49.448;8.612;2022-10-16T02:40:34;16.90;99.90
1107;DHT22;540;49.448;8.612;2022-10-16T02:43:04;17.10;99.90
1107;DHT22;540;49.448;8.612;2022-10-16T02:45:32;17.00;99.90
1107;DHT22;540;49.448;8.612;2022-10-16T02:48:00;17.30;99.90
1107;DHT22;540;49.448;8.612;2022-10-16T02:50:28;17.20;99.90
1107;DHT22;540;49.448;8.612;2022-10-16T02:52:55;17.10;99.90
1107;DHT22;540;49.448;8.612;2022-10-16T02:55:23;17.20;99.90
1107;DHT22;540;49.448;8.612;2022-10-16T02:57:51;17.40;99.90
1107;DHT22;540;49.448;8.612;2022-10-16T03:00:20;17.60;99.90
1107;DHT22;540;49.448;8.612;2022-10-16T03:02:48;17.20;99.90
1107;DHT22;540;49.448;8.612;2022-10-16T03:05:16;17.20;99.90
1107;DHT22;540;49.448;8.612;2022-10-16T03:07:44;17.40;99.90
1107;DHT22;540;49.448;8.612;2022-10-16T03:10:12;17.30;99.90
1107;DHT22;540;49.448;8.612;2022-10-16T03:12:39;16.80;99.90
1107;DHT22;540;49.448;8.612;2022-10-16T03:15:08;17.30;99.90
1107;DHT22;540;49.448;8.612;2022-10-16T03:17:37;17.10;99.90
1107;DHT22;540;49.448;8.612;2022-10-16T03:20:06;17.30;99.90
1107;DHT22;540;49.448;8.612;2022-10-16T03:22:34;17.10;99.90
1107;DHT22;540;49.448;8.612;2022-10-16T03:25:01;17.10;99.90
1107;DHT22;540;49.448;8.612;2022-10-16T03:27:29;17.30;99.90
1107;DHT22;540;49.448;8.612;2022-10-16T03:29:57;17.40;99.90
1107;DHT22;540;49.448;8.612;2022-10-16T03:32:25;17.10;99.90
1107;DHT22;540;49.448;8.612;2022-10-16T03:34:54;17.40;99.90
1107;DHT22;540;49.448;8.612;2022-10-16T03:37:23;17.10;99.90
1107;DHT22;540;49.448;8.612;2022-10-16T03:39:52;17.50;99.90
1107;DHT22;540;49.448;8.612;2022-10-16T03:42:20;17.30;99.90
1107;DHT22;540;49.448;8.612;2022-10-16T03:44:47;17.00;99.90
1107;DHT22;540;49.448;8.612;2022-10-16T03:47:15;17.60;99.90
1107;DHT22;540;49.448;8.612;2022-10-16T03:49:47;17.40;99.90
1107;DHT22;540;49.448;8.612;2022-10-16T03:52:16;17.40;99.90
1107;DHT22;540;49.448;8.612;2022-10-16T03:54:44;17.30;99.90
1107;DHT22;540;49.448;8.612;2022-10-16T03:57:12;17.30;99.90
1107;DHT22;540;49.448;8.612;2022-10-16T03:59:39;17.40;99.90
1107;DHT22;540;49.448;8.612;2022-10-16T04:02:07;17.20;99.90
1107;DHT22;540;49.448;8.612;2022-10-16T04:04:35;17.30;99.90
1107;DHT22;540;49.448;8.612;2022-10-16T04:07:03;17.50;99.90
1107;DHT22;540;49.448;8.612;2022-10-16T04:09:32;17.30;99.90
1107;DHT22;540;49.448;8.612;2022-10-16T04:12:00;17.40;99.90
1107;DHT22;540;49.448;8.612;2022-10-16T04:14:28;17.50;99.90
1107;DHT22;540;49.448;8.612;2022-10-16T04:16:56;17.40;99.90
1107;DHT22;540;49.448;8.612;2022-10-16T04:19:23;17.10;99.90
1107;DHT22;540;49.448;8.612;2022-10-16T04:21:51;17.70;99.90
1107;DHT22;540;49.448;8.612;2022-10-16T04:24:19;17.40;99.90
1107;DHT22;540;49.448;8.612;2022-10-16T04:26:48;17.60;99.90
1107;DHT22;540;49.448;8.612;2022-10-16T04:29:16;17.60;99.90
1107;DHT22;540;49.448;8.612;2022-10-16T04:31:43;17.40;99.90
1107;DHT22;540;49.448;8.612;2022-10-16T04:34:11;17.30;99.90
1107;DHT22;540;49.448;8.612;2022-10-16T04:36:39;17.40;99.90
1107;DHT22;540;49.448;8.612;2022-10-16T04:39:06;17.50;99.90
1107;DHT22;540;49.448;8.612;2022-10-16T04:41:34;17.30;99.90
1107;DHT22;540;49.448;8.612;2022-10-16T04:44:03;17.40;99.90
1107;DHT22;540;49.448;8.612;2022-10-16T04:46:31;17.40;99.90
1107;DHT22;540;49.448;8.612;2022-10-16T04:48:59;17.20;99.90
1107;DHT22;540;49.448;8.612;2022-10-16T04:51:26;17.30;99.90
1107;DHT22;540;49.448;8.612;2022-10-16T04:53:54;17.40;99.90
1107;DHT22;540;49.448;8.612;2022-10-16T04:56:22;16.90;99.90
1107;DHT22;540;49.448;8.612;2022-10-16T04:58:50;17.30;99.90
1107;DHT22;540;49.448;8.612;2022-10-16T05:01:20;17.10;99.90
1107;DHT22;540;49.448;8.612;2022-10-16T05:03:47;17.30;99.90
1107;DHT22;540;49.448;8.612;2022-10-16T05:06:15;16.90;99.90
1107;DHT22;540;49.448;8.612;2022-10-16T05:08:43;17.00;99.90
1107;DHT22;540;49.448;8.612;2022-10-16T05:11:11;17.30;99.90
1107;DHT22;540;49.448;8.612;2022-10-16T05:13:38;17.20;99.90
1107;DHT22;540;49.448;8.612;2022-10-16T05:16:06;17.10;99.90
1107;DHT22;540;49.448;8.612;2022-10-16T05:18:35;17.20;99.90
1107;DHT22;540;49.448;8.612;2022-10-16T05:21:03;17.10;99.90
1107;DHT22;540;49.448;8.612;2022-10-16T05:23:32;17.00;99.90
1107;DHT22;540;49.448;8.612;2022-10-16T05:26:00;17.20;99.90
1107;DHT22;540;49.448;8.612;2022-10-16T05:28:29;17.10;99.90
1107;DHT22;540;49.448;8.612;2022-10-16T05:30:57;17.20;99.90
1107;DHT22;540;49.448;8.612;2022-10-16T05:33:26;17.40;99.90
1107;DHT22;540;49.448;8.612;2022-10-16T05:35:55;17.20;99.90
1107;DHT22;540;49.448;8.612;2022-10-16T05:38:23;17.00;99.90
1107;DHT22;540;49.448;8.612;2022-10-16T05:40:51;17.30;99.90
1107;DHT22;540;49.448;8.612;2022-10-16T05:43:19;17.40;99.90
1107;DHT22;540;49.448;8.612;2022-10-16T05:45:54;17.40;99.90
1107;DHT22;540;49.448;8.612;2022-10-16T05:48:22;17.70;99.90
1107;DHT22;540;49.448;8.612;2022-10-16T05:50:58;17.40;99.90
1107;DHT22;540;49.448;8.612;2022-10-16T05:53:27;17.30;99.90
1107;DHT22;540;49.448;8.612;2022-10-16T05:55:56;17.60;99.90
1107;DHT22;540;49.448;8.612;2022-10-16T05:58:24;17.30;99.90
1107;DHT22;540;49.448;8.612;2022-10-16T06:00:53;17.40;99.90
1107;DHT22;540;49.448;8.612;2022-10-16T06:03:21;17.40;99.90
1107;DHT22;540;49.448;8.612;2022-10-16T06:05:49;17.40;99.90
1107;DHT22;540;49.448;8.612;2022-10-16T06:08:20;17.40;99.90
1107;DHT22;540;49.448;8.612;2022-10-16T06:10:49;17.40;99.90
1107;DHT22;540;49.448;8.612;2022-10-16T06:13:16;17.30;99.90
1107;DHT22;540;49.448;8.612;2022-10-16T06:15:44;17.50;99.90
1107;DHT22;540;49.448;8.612;2022-10-16T06:18:12;17.40;99.90
1107;DHT22;540;49.448;8.612;2022-10-16T06:20:40;17.30;99.90
1107;DHT22;540;49.448;8.612;2022-10-16T06:23:08;17.30;99.90
1107;DHT22;540;49.448;8.612;2022-10-16T06:25:37;17.30;99.90
1107;DHT22;540;49.448;8.612;2022-10-16T06:28:05;17.50;99.90
1107;DHT22;540;49.448;8.612;2022-10-16T06:30:32;17.50;99.90
1107;DHT22;540;49.448;8.612;2022-10-16T06:33:00;17.50;99.90
1107;DHT22;540;49.448;8.612;2022-10-16T06:35:28;17.30;99.90
1107;DHT22;540;49.448;8.612;2022-10-16T06:37:58;17.70;99.90
1107;DHT22;540;49.448;8.612;2022-10-16T06:40:26;17.50;99.90
1107;DHT22;540;49.448;8.612;2022-10-16T06:42:56;17.40;99.90
1107;DHT22;540;49.448;8.612;2022-10-16T06:45:23;17.60;99.90
1107;DHT22;540;49.448;8.612;2022-10-16T06:47:51;17.70;99.90
1107;DHT22;540;49.448;8.612;2022-10-16T06:50:19;17.60;99.90
1107;DHT22;540;49.448;8.612;2022-10-16T06:52:47;17.70;99.90
1107;DHT22;540;49.448;8.612;2022-10-16T06:55:14;17.50;99.90
1107;DHT22;540;49.448;8.612;2022-10-16T06:57:43;17.70;99.90
1107;DHT22;540;49.448;8.612;2022-10-16T07:00:13;17.60;99.90
1107;DHT22;540;49.448;8.612;2022-10-16T07:02:40;17.70;99.90
1107;DHT22;540;49.448;8.612;2022-10-16T07:05:08;17.80;99.90
1107;DHT22;540;49.448;8.612;2022-10-16T07:07:36;17.50;99.90
1107;DHT22;540;49.448;8.612;2022-10-16T07:10:04;17.40;99.90
1107;DHT22;540;49.448;8.612;2022-10-16T07:12:32;17.90;99.90
1107;DHT22;540;49.448;8.612;2022-10-16T07:15:00;17.60;99.90
1107;DHT22;540;49.448;8.612;2022-10-16T07:17:29;17.80;99.90
1107;DHT22;540;49.448;8.612;2022-10-16T07:19:57;17.70;99.90
1107;DHT22;540;49.448;8.612;2022-10-16T07:22:24;17.80;99.90
1107;DHT22;540;49.448;8.612;2022-10-16T07:24:53;17.90;99.90
1107;DHT22;540;49.448;8.612;2022-10-16T07:27:20;18.10;99.90
1107;DHT22;540;49.448;8.612;2022-10-16T07:29:50;18.40;99.90
1107;DHT22;540;49.448;8.612;2022-10-16T07:32:18;18.20;99.90
1107;DHT22;540;49.448;8.612;2022-10-16T07:34:47;18.60;99.90
1107;DHT22;540;49.448;8.612;2022-10-16T07:37:15;18.50;99.90
1107;DHT22;540;49.448;8.612;2022-10-16T07:39:42;18.30;99.90
1107;DHT22;540;49.448;8.612;2022-10-16T07:42:10;18.60;99.90
1107;DHT22;540;49.448;8.612;2022-10-16T07:44:38;18.70;99.90
1107;DHT22;540;49.448;8.612;2022-10-16T07:47:06;18.80;99.90
1107;DHT22;540;49.448;8.612;2022-10-16T07:49:34;18.40;99.90
1107;DHT22;540;49.448;8.612;2022-10-16T07:52:03;18.40;99.90
1107;DHT22;540;49.448;8.612;2022-10-16T07:54:31;18.70;99.90
1107;DHT22;540;49.448;8.612;2022-10-16T07:56:59;18.70;99.90
1107;DHT22;540;49.448;8.612;2022-10-16T07:59:26;18.80;99.90
1107;DHT22;540;49.448;8.612;2022-10-16T08:01:54;18.20;99.90
1107;DHT22;540;49.448;8.612;2022-10-16T08:04:22;18.90;99.90
1107;DHT22;540;49.448;8.612;2022-10-16T08:06:50;19.10;99.90
1107;DHT22;540;49.448;8.612;2022-10-16T08:09:19;19.80;99.90
1107;DHT22;540;49.448;8.612;2022-10-16T08:11:47;20.20;99.90
1107;DHT22;540;49.448;8.612;2022-10-16T08:14:15;19.60;99.90
1107;DHT22;540;49.448;8.612;2022-10-16T08:16:42;19.80;99.90
1107;DHT22;540;49.448;8.612;2022-10-16T08:19:10;20.00;99.90
1107;DHT22;540;49.448;8.612;2022-10-16T08:21:38;19.80;99.90
1107;DHT22;540;49.448;8.612;2022-10-16T08:24:06;19.90;99.90
1107;DHT22;540;49.448;8.612;2022-10-16T08:26:35;19.90;99.90
1107;DHT22;540;49.448;8.612;2022-10-16T08:29:02;19.70;99.90
1107;DHT22;540;49.448;8.612;2022-10-16T08:31:30;19.30;99.90
1107;DHT22;540;49.448;8.612;2022-10-16T08:33:58;19.90;99.90
1107;DHT22;540;49.448;8.612;2022-10-16T08:36:26;19.90;99.90
1107;DHT22;540;49.448;8.612;2022-10-16T08:38:54;19.60;99.90
1107;DHT22;540;49.448;8.612;2022-10-16T08:41:57;19.50;99.90
1107;DHT22;540;49.448;8.612;2022-10-16T08:47:35;19.40;99.90
1107;DHT22;540;49.448;8.612;2022-10-16T08:50:09;19.70;99.90
1107;DHT22;540;49.448;8.612;2022-10-16T08:52:40;20.50;99.90
1107;DHT22;540;49.448;8.612;2022-10-16T08:55:19;21.80;99.90
1107;DHT22;540;49.448;8.612;2022-10-16T08:57:52;21.60;99.90
1107;DHT22;540;49.448;8.612;2022-10-16T09:00:20;21.00;99.90
1107;DHT22;540;49.448;8.612;2022-10-16T09:02:53;20.80;99.90
1107;DHT22;540;49.448;8.612;2022-10-16T09:05:31;20.80;99.90
1107;DHT22;540;49.448;8.612;2022-10-16T09:08:11;20.60;99.90
1107;DHT22;540;49.448;8.612;2022-10-16T09:10:51;20.80;99.90
1107;DHT22;540;49.448;8.612;2022-10-16T09:13:28;20.70;99.90
1107;DHT22;540;49.448;8.612;2022-10-16T09:16:04;20.70;99.90
1107;DHT22;540;49.448;8.612;2022-10-16T09:18:43;20.60;99.90
1107;DHT22;540;49.448;8.612;2022-10-16T09:21:16;20.80;99.90
1107;DHT22;540;49.448;8.612;2022-10-16T09:23:45;21.10;99.90
1107;DHT22;540;49.448;8.612;2022-10-16T09:26:16;21.50;99.90
1107;DHT22;540;49.448;8.612;2022-10-16T09:28:47;21.40;99.90
1107;DHT22;540;49.448;8.612;2022-10-16T09:31:18;22.00;99.90
1107;DHT22;540;49.448;8.612;2022-10-16T09:33:50;22.60;99.90
1107;DHT22;540;49.448;8.612;2022-10-16T09:36:20;23.00;98.20
1107;DHT22;540;49.448;8.612;2022-10-16T09:38:48;23.40;95.70
1107;DHT22;540;49.448;8.612;2022-10-16T09:41:18;23.70;93.60
1107;DHT22;540;49.448;8.612;2022-10-16T09:43:52;24.70;90.70
1107;DHT22;540;49.448;8.612;2022-10-16T09:46:28;25.90;82.30
1107;DHT22;540;49.448;8.612;2022-10-16T09:48:58;26.50;76.20
1107;DHT22;540;49.448;8.612;2022-10-16T09:51:28;27.20;70.70
1107;DHT22;540;49.448;8.612;2022-10-16T09:53:58;26.90;71.20
1107;DHT22;540;49.448;8.612;2022-10-16T09:56:28;25.60;76.70
1107;DHT22;540;49.448;8.612;2022-10-16T09:58:59;24.90;81.60
1107;DHT22;540;49.448;8.612;2022-10-16T10:01:31;24.50;85.10
1107;DHT22;540;49.448;8.612;2022-10-16T10:04:02;24.00;87.60
1107;DHT22;540;49.448;8.612;2022-10-16T10:06:32;23.50;90.90
1107;DHT22;540;49.448;8.612;2022-10-16T10:09:04;23.30;92.60
1107;DHT22;540;49.448;8.612;2022-10-16T10:14:31;22.60;95.80
1107;DHT22;540;49.448;8.612;2022-10-16T10:17:12;22.10;97.30
1107;DHT22;540;49.448;8.612;2022-10-16T10:19:44;21.70;98.10
1107;DHT22;540;49.448;8.612;2022-10-16T10:22:17;21.80;98.80
1107;DHT22;540;49.448;8.612;2022-10-16T10:24:53;22.00;98.50
1107;DHT22;540;49.448;8.612;2022-10-16T10:27:25;22.60;98.10
1107;DHT22;540;49.448;8.612;2022-10-16T10:30:01;23.40;94.60
1107;DHT22;540;49.448;8.612;2022-10-16T10:32:39;24.00;91.90
1107;DHT22;540;49.448;8.612;2022-10-16T10:35:15;24.40;90.00
1107;DHT22;540;49.448;8.612;2022-10-16T10:37:55;24.50;89.50
1107;DHT22;540;49.448;8.612;2022-10-16T10:40:34;25.30;85.10
1107;DHT22;540;49.448;8.612;2022-10-16T10:43:14;26.10;78.80
1107;DHT22;540;49.448;8.612;2022-10-16T10:45:52;26.80;73.50
1107;DHT22;540;49.448;8.612;2022-10-16T10:48:43;27.70;70.30
1107;DHT22;540;49.448;8.612;2022-10-16T10:51:21;27.90;68.60
1107;DHT22;540;49.448;8.612;2022-10-16T10:53:51;27.60;67.10
1107;DHT22;540;49.448;8.612;2022-10-16T10:56:43;27.20;68.40
1107;DHT22;540;49.448;8.612;2022-10-16T11:02:25;27.50;68.00
1107;DHT22;540;49.448;8.612;2022-10-16T11:07:50;28.40;63.10
1107;DHT22;540;49.448;8.612;2022-10-16T11:10:22;28.50;62.90
1107;DHT22;540;49.448;8.612;2022-10-16T11:12:54;28.20;62.70
1107;DHT22;540;49.448;8.612;2022-10-16T11:15:27;28.70;62.60
1107;DHT22;540;49.448;8.612;2022-10-16T11:18:04;29.00;61.00
1107;DHT22;540;49.448;8.612;2022-10-16T11:20:37;29.50;59.10
1107;DHT22;540;49.448;8.612;2022-10-16T11:23:13;29.10;59.30
1107;DHT22;540;49.448;8.612;2022-10-16T11:25:43;28.70;60.50
1107;DHT22;540;49.448;8.612;2022-10-16T11:28:15;28.10;63.10
1107;DHT22;540;49.448;8.612;2022-10-16T11:30:47;28.00;63.00
1107;DHT22;540;49.448;8.612;2022-10-16T11:33:25;27.30;64.90
1107;DHT22;540;49.448;8.612;2022-10-16T11:36:02;27.60;66.20
1107;DHT22;540;49.448;8.612;2022-10-16T11:38:37;27.90;65.10
1107;DHT22;540;49.448;8.612;2022-10-16T11:41:12;27.90;65.40
1107;DHT22;540;49.448;8.612;2022-10-16T11:43:46;28.30;64.50
1107;DHT22;540;49.448;8.612;2022-10-16T11:46:20;29.10;61.70
1107;DHT22;540;49.448;8.612;2022-10-16T11:48:54;29.70;60.00
1107;DHT22;540;49.448;8.612;2022-10-16T11:51:31;30.40;57.90
1107;DHT22;540;49.448;8.612;2022-10-16T11:54:07;30.50;56.00
1107;DHT22;540;49.448;8.612;2022-10-16T11:56:38;29.80;56.50
1107;DHT22;540;49.448;8.612;2022-10-16T11:59:13;28.80;58.90
1107;DHT22;540;49.448;8.612;2022-10-16T12:01:47;27.80;61.40
1107;DHT22;540;49.448;8.612;2022-10-16T12:04:24;27.20;64.40
1107;DHT22;540;49.448;8.612;2022-10-16T12:06:58;26.50;67.20
1107;DHT22;540;49.448;8.612;2022-10-16T12:09:31;25.70;70.40
1107;DHT22;540;49.448;8.612;2022-10-16T12:11:59;25.20;74.60
1107;DHT22;540;49.448;8.612;2022-10-16T12:14:38;24.90;78.60
1107;DHT22;540;49.448;8.612;2022-10-16T12:17:34;24.70;80.30
1107;DHT22;540;49.448;8.612;2022-10-16T12:20:23;24.10;84.30
1107;DHT22;540;49.448;8.612;2022-10-16T12:22:54;24.00;86.10
1107;DHT22;540;49.448;8.612;2022-10-16T12:25:25;24.00;86.50
1107;DHT22;540;49.448;8.612;2022-10-16T12:27:57;23.90;87.20
1107;DHT22;540;49.448;8.612;2022-10-16T12:30:27;23.70;89.90
1107;DHT22;540;49.448;8.612;2022-10-16T12:33:01;23.70;90.60
1107;DHT22;540;49.448;8.612;2022-10-16T12:35:34;23.50;91.30
1107;DHT22;540;49.448;8.612;2022-10-16T12:38:08;23.40;91.70
1107;DHT22;540;49.448;8.612;2022-10-16T12:40:40;23.30;91.60
1107;DHT22;540;49.448;8.612;2022-10-16T12:43:24;23.30;92.00
1107;DHT22;540;49.448;8.612;2022-10-16T12:46:00;23.10;91.50
1107;DHT22;540;49.448;8.612;2022-10-16T12:48:28;23.20;92.00
1107;DHT22;540;49.448;8.612;2022-10-16T12:51:23;23.20;90.90
1107;DHT22;540;49.448;8.612;2022-10-16T12:53:58;23.20;91.30
1107;DHT22;540;49.448;8.612;2022-10-16T12:56:36;23.30;91.00
1107;DHT22;540;49.448;8.612;2022-10-16T12:59:12;23.30;90.30
1107;DHT22;540;49.448;8.612;2022-10-16T13:01:55;23.30;90.30
1107;DHT22;540;49.448;8.612;2022-10-16T13:04:43;23.30;90.50
1107;DHT22;540;49.448;8.612;2022-10-16T13:07:25;23.60;90.00
1107;DHT22;540;49.448;8.612;2022-10-16T13:10:06;23.90;88.10
1107;DHT22;540;49.448;8.612;2022-10-16T13:12:50;24.00;87.50
1107;DHT22;540;49.448;8.612;2022-10-16T13:15:38;24.10;87.20
1107;DHT22;540;49.448;8.612;2022-10-16T13:18:13;24.00;85.90
1107;DHT22;540;49.448;8.612;2022-10-16T13:21:00;24.00;87.70
1107;DHT22;540;49.448;8.612;2022-10-16T13:23:37;23.90;88.40
1107;DHT22;540;49.448;8.612;2022-10-16T13:26:16;23.60;89.30
1107;DHT22;540;49.448;8.612;2022-10-16T13:28:45;23.20;91.40
1107;DHT22;540;49.448;8.612;2022-10-16T13:31:17;22.80;93.30
1107;DHT22;540;49.448;8.612;2022-10-16T13:33:48;22.60;94.60
1107;DHT22;540;49.448;8.612;2022-10-16T13:36:21;22.40;94.90
1107;DHT22;540;49.448;8.612;2022-10-16T13:39:01;22.40;95.20
1107;DHT22;540;49.448;8.612;2022-10-16T13:41:32;22.20;95.80
1107;DHT22;540;49.448;8.612;2022-10-16T13:43:59;22.30;97.80
1107;DHT22;540;49.448;8.612;2022-10-16T13:46:27;22.10;98.60
1107;DHT22;540;49.448;8.612;2022-10-16T13:48:56;22.10;99.90
1107;DHT22;540;49.448;8.612;2022-10-16T13:51:24;22.00;99.90
1107;DHT22;540;49.448;8.612;2022-10-16T13:53:54;21.60;99.90
1107;DHT22;540;49.448;8.612;2022-10-16T13:56:26;22.20;99.90
1107;DHT22;540;49.448;8.612;2022-10-16T13:58:58;22.00;99.90
1107;DHT22;540;49.448;8.612;2022-10-16T14:01:29;22.00;99.90
1107;DHT22;540;49.448;8.612;2022-10-16T14:04:03;22.00;99.90
1107;DHT22;540;49.448;8.612;2022-10-16T14:06:32;21.90;99.90
1107;DHT22;540;49.448;8.612;2022-10-16T14:09:04;21.80;99.90
1107;DHT22;540;49.448;8.612;2022-10-16T14:11:36;21.70;99.90
1107;DHT22;540;49.448;8.612;2022-10-16T14:14:10;21.80;99.90
1107;DHT22;540;49.448;8.612;2022-10-16T14:16:41;21.90;99.90
1107;DHT22;540;49.448;8.612;2022-10-16T14:19:17;22.00;99.90
1107;DHT22;540;49.448;8.612;2022-10-16T14:21:49;21.80;99.50
1107;DHT22;540;49.448;8.612;2022-10-16T14:24:26;22.00;99.90
1107;DHT22;540;49.448;8.612;2022-10-16T14:26:56;22.00;99.10
1107;DHT22;540;49.448;8.612;2022-10-16T14:29:25;22.10;99.20
1107;DHT22;540;49.448;8.612;2022-10-16T14:31:57;21.80;99.20
1107;DHT22;540;49.448;8.612;2022-10-16T14:34:27;21.70;99.90
1107;DHT22;540;49.448;8.612;2022-10-16T14:36:58;21.70;99.90
1107;DHT22;540;49.448;8.612;2022-10-16T14:39:27;21.30;99.90
1107;DHT22;540;49.448;8.612;2022-10-16T14:41:57;21.40;99.90
1107;DHT22;540;49.448;8.612;2022-10-16T14:44:31;21.60;99.90
1107;DHT22;540;49.448;8.612;2022-10-16T14:47:08;21.60;99.90
1107;DHT22;540;49.448;8.612;2022-10-16T14:49:37;21.60;99.90
1107;DHT22;540;49.448;8.612;2022-10-16T14:52:09;21.60;99.90
1107;DHT22;540;49.448;8.612;2022-10-16T14:54:38;21.10;99.90
1107;DHT22;540;49.448;8.612;2022-10-16T14:57:16;21.30;99.90
1107;DHT22;540;49.448;8.612;2022-10-16T14:59:45;21.20;99.90
1107;DHT22;540;49.448;8.612;2022-10-16T15:02:20;21.60;99.90
1107;DHT22;540;49.448;8.612;2022-10-16T15:04:50;21.60;99.90
1107;DHT22;540;49.448;8.612;2022-10-16T15:07:18;21.60;99.90
1107;DHT22;540;49.448;8.612;2022-10-16T15:09:46;21.60;99.90
1107;DHT22;540;49.448;8.612;2022-10-16T15:12:16;21.80;99.90
1107;DHT22;540;49.448;8.612;2022-10-16T15:14:44;21.90;99.90
1107;DHT22;540;49.448;8.612;2022-10-16T15:17:12;21.90;99.80
1107;DHT22;540;49.448;8.612;2022-10-16T15:19:44;22.00;99.70
1107;DHT22;540;49.448;8.612;2022-10-16T15:22:12;22.10;99.30
1107;DHT22;540;49.448;8.612;2022-10-16T15:24:39;22.00;99.00
1107;DHT22;540;49.448;8.612;2022-10-16T15:27:07;22.00;99.30
1107;DHT22;540;49.448;8.612;2022-10-16T15:29:36;22.00;99.20
1107;DHT22;540;49.448;8.612;2022-10-16T15:32:04;22.00;99.30
1107;DHT22;540;49.448;8.612;2022-10-16T15:34:32;21.70;99.90
1107;DHT22;540;49.448;8.612;2022-10-16T15:37:02;21.90;99.60
1107;DHT22;540;49.448;8.612;2022-10-16T15:39:30;21.80;99.70
1107;DHT22;540;49.448;8.612;2022-10-16T15:42:03;21.60;99.90
1107;DHT22;540;49.448;8.612;2022-10-16T15:44:32;21.80;99.90
1107;DHT22;540;49.448;8.612;2022-10-16T15:47:01;21.60;99.90
1107;DHT22;540;49.448;8.612;2022-10-16T15:49:29;21.60;99.90
1107;DHT22;540;49.448;8.612;2022-10-16T15:51:56;21.50;99.90
1107;DHT22;540;49.448;8.612;2022-10-16T15:54:24;21.50;99.90
1107;DHT22;540;49.448;8.612;2022-10-16T15:56:52;21.50;99.90
1107;DHT22;540;49.448;8.612;2022-10-16T15:59:19;21.30;99.90
1107;DHT22;540;49.448;8.612;2022-10-16T16:01:47;21.00;99.90
1107;DHT22;540;49.448;8.612;2022-10-16T16:04:16;21.20;99.90
1107;DHT22;540;49.448;8.612;2022-10-16T16:07:04;20.90;99.90
1107;DHT22;540;49.448;8.612;2022-10-16T16:09:33;21.00;99.90
1107;DHT22;540;49.448;8.612;2022-10-16T16:12:01;21.10;99.90
1107;DHT22;540;49.448;8.612;2022-10-16T16:14:29;21.20;99.90
1107;DHT22;540;49.448;8.612;2022-10-16T16:16:57;21.00;99.90
1107;DHT22;540;49.448;8.612;2022-10-16T16:19:26;21.20;99.90
1107;DHT22;540;49.448;8.612;2022-10-16T16:21:54;21.20;99.90
1107;DHT22;540;49.448;8.612;2022-10-16T16:24:21;21.10;99.90
1107;DHT22;540;49.448;8.612;2022-10-16T16:26:49;21.00;99.90
1107;DHT22;540;49.448;8.612;2022-10-16T16:29:17;21.00;99.90
1107;DHT22;540;49.448;8.612;2022-10-16T16:31:45;20.90;99.90
1107;DHT22;540;49.448;8.612;2022-10-16T16:34:13;20.30;99.90
1107;DHT22;540;49.448;8.612;2022-10-16T16:36:42;20.50;99.90
1107;DHT22;540;49.448;8.612;2022-10-16T16:39:10;20.70;99.90
1107;DHT22;540;49.448;8.612;2022-10-16T16:41:38;20.70;99.90
1107;DHT22;540;49.448;8.612;2022-10-16T16:44:09;20.30;99.90
1107;DHT22;540;49.448;8.612;2022-10-16T16:46:38;20.50;99.90
1107;DHT22;540;49.448;8.612;2022-10-16T16:49:06;20.50;99.90
1107;DHT22;540;49.448;8.612;2022-10-16T16:51:34;20.40;99.90
1107;DHT22;540;49.448;8.612;2022-10-16T16:54:08;20.10;99.90